Flight Track Log - Related Links

Times and Time Zones

All times are in EDT time to prevent confusion due to time zone crossing. See the JIA2328 flight status page for this flight to view local times or setup timezone preferences in your user account.

Time Position Orientation Groundspeed Altitude Reporting Facility
EDT Latitude Longitude Course Direction KTS MPH feet Rate Location/Type
Sat 08:33:09 AM 39.8667 -75.2667 37° Northeast 150 173 900  Level Philadelphia TRACON
Sat 08:35:00 AM 39.8167 -74.8856 90° East  Level FlightAware Approximate
Sat 08:35:19 AM 39.7861 -75.2633 178° South 143 165 7,400  Level New York Center
Sat 08:36:00 AM 39.7968 -74.7672 105° East  Level FlightAware Approximate
Sat 08:36:16 AM 39.7881 -75.1556 89° East 212 244 9,900  Level New York Center
Sat 08:37:00 AM 39.8152 -74.6682 37° Northeast  Level FlightAware Approximate
Sat 08:37:17 AM 39.7881 -75.0419 90° East 287 330 11,600  Level New York Center
Sat 08:38:00 AM 39.8893 -74.5941 37° Northeast  Level FlightAware Approximate
Sat 08:38:19 AM 39.7897 -74.8828 89° East 377 434 12,000  Level New York Center
Sat 08:39:19 AM 39.7986 -74.7453 85° East 406 467 12,700 1,017 Climbing New York Center
Sat 08:40:17 AM 39.8794 -74.6308 47° Northeast 394 453 14,000 1,373 Climbing New York Center
Sat 08:41:17 AM 39.9806 -74.5364 36° Northeast 410 472 15,400 1,500 Climbing New York Center
Sat 08:42:17 AM 40.0903 -74.4311 36° Northeast 437 503 17,000 1,600 Climbing New York Center
Sat 08:43:17 AM 40.1911 -74.3331 37° Northeast 451 519 18,600 1,200 Climbing New York Center
Sat 08:44:17 AM 40.2856 -74.2428 36° Northeast 451 519 19,400 885 Climbing New York Center
Sat 08:45:19 AM 40.3864 -74.1417 37° Northeast 451 519 20,400 921 Climbing New York Center
Sat 08:47:39 AM 40.6489 -73.8897 36° Northeast 467 537 22,500 780 Climbing Boston Center
Sat 08:48:39 AM 40.7564 -73.7825 37° Northeast 477 549 23,000 500 Climbing Boston Center
Sat 08:49:39 AM 40.8514 -73.6775 40° Northeast 485 558 23,500 200 Climbing Boston Center
Sat 08:50:39 AM 40.9733 -73.5892 29° Northeast 491 565 23,400 -250 Descending Boston Center
Sat 08:51:39 AM 41.1217 -73.5339 16° North 485 558 23,000 -200 Descending Boston Center
Sat 08:52:39 AM 41.2536 -73.4811 17° North 491 565 23,000 -250 Level Boston Center
Sat 08:53:39 AM 41.3853 -73.4417 13° North 486 559 22,500 -750 Descending Boston Center
Sat 08:54:39 AM 41.5183 -73.4547 356° North 478 550 21,500 -1,000 Descending Boston Center
Sat 08:55:39 AM 41.6456 -73.4708 355° North 467 537 20,500 -1,350 Descending Boston Center
Sat 08:56:39 AM 41.7683 -73.4867 355° North 456 525 18,800 -2,100 Descending Boston Center
Sat 08:57:39 AM 41.8661 -73.5106 350° North 417 480 16,300 -2,400 Descending Boston Center
Sat 08:58:39 AM 41.9781 -73.5458 347° North 377 434 14,000 -2,150 Descending Boston Center
Sat 08:59:39 AM 42.0819 -73.5814 346° North 377 434 12,000 -1,500 Descending Boston Center
Sat 09:00:39 AM 42.1881 -73.6169 346° North 382 440 11,000 -850 Descending Boston Center
Sat 09:01:39 AM 42.2836 -73.6497 346° North 369 425 10,300 -1,244 Descending Boston Center
Sat 09:02:54 AM 42.3833 -73.6797 347° North 286 329 8,200 -1,721 Descending Boston Center
Sat 09:03:55 AM 42.4706 -73.6956 352° North 298 343 6,400 -1,587 Descending Boston Center
Sat 09:04:55 AM 42.5519 -73.6886 North 293 337 5,000 -694 Descending Boston Center
Sat 09:05:56 AM 42.6311 -73.6789 North 287 330 5,000 -234 Level Boston Center
Sat 09:07:03 AM 42.7189 -73.6778 North 289 333 4,500 -945 Descending Boston Center
Sat 09:08:03 AM 42.8000 -73.6908 353° North 273 314 3,000 -744 Descending Boston Center
Sat 09:09:04 AM 42.8747 -73.7064 351° North 279 321 3,000 -298 Level Boston Center
Sat 09:10:04 AM 42.9328 -73.7472 333° Northwest 240 276 2,400 -496 Descending Boston Center
Sat 09:11:05 AM 42.9069 -73.8119 241° Southwest 201 231 2,000 -393 Descending Boston Center

Login

Don't have an account? Register now (free) for customized features, flight alerts, and more!